Anniston, Missouri
Current Conditions -  °F | °C
As of 10:15 AM on Tuesday 21 Oct 2014 (Local Time) from KCIR Reporting Station
Clear Clear  
Wind Chill: 66°   Ceiling: Unl
Heat Index: 66°   Visibility: 10mi
Dew Point: 53°   Wind: 6mph
Humidity: 63%   Direction: 310°NW
Pressure: 30.1"   Gusts: NA
Location:  36.83°N, 89.33°W
Report Text: KCIR 211515Z AUTO 31005KT 10SM CLR 19/12 A3010 RMK AO2 T01910119
Loading
Personal Weather Stations






























Interactive Weather Map
Tropical Storm Tracking
New forecast layout! Learn more

10-Day Weather Forecast

Advertisements
Track Severe Weather on mobile